Time;durP1;ratioP1;P1;durP2;ratioP2;P2;SDS_P1;SDS_P2;PMS_P1;PMS_P2;Temp;Humidity;BMP_temperature;BMP_pressure;BME280_temperature;BME280_humidity;BME280_pressure;Samples;Min_cycle;Max_cycle;Signal;HPM_P1;HPM_P2
2021/12/09 00:01:01;;;;;;;12.17;6.77;;;1.70;99.90;;;;;;5074565;28;20322;-62
2021/12/09 00:03:29;;;;;;;12.23;6.33;;;1.70;99.90;;;;;;5072773;28;20189;-62
2021/12/09 00:05:57;;;;;;;11.80;7.27;;;1.70;99.90;;;;;;5071987;28;20200;-62
2021/12/09 00:08:26;;;;;;;11.93;6.83;;;1.70;99.90;;;;;;5072557;28;20277;-62
2021/12/09 00:10:53;;;;;;;12.50;7.43;;;1.70;99.90;;;;;;5071832;28;20284;-63
2021/12/09 00:13:22;;;;;;;10.50;6.70;;;1.70;99.90;;;;;;5070581;28;20205;-61
2021/12/09 00:15:51;;;;;;;13.07;7.10;;;1.80;99.90;;;;;;5074488;28;20189;-61
2021/12/09 00:18:18;;;;;;;10.70;7.23;;;1.80;99.90;;;;;;5072019;28;20204;-62
2021/12/09 00:20:46;;;;;;;11.97;6.93;;;1.70;99.90;;;;;;5073032;28;20196;-62
2021/12/09 00:23:13;;;;;;;10.63;6.40;;;1.70;99.90;;;;;;5083507;28;20196;-62
2021/12/09 00:25:40;;;;;;;11.27;7.07;;;1.70;99.90;;;;;;5072346;28;20231;-61
2021/12/09 00:28:07;;;;;;;14.20;8.07;;;1.70;99.90;;;;;;5071842;28;20197;-62
2021/12/09 00:30:37;;;;;;;12.60;8.50;;;1.70;99.90;;;;;;5072400;28;20573;-64
2021/12/09 00:33:05;;;;;;;10.83;7.00;;;1.70;99.90;;;;;;5072230;28;20205;-62
2021/12/09 00:35:42;;;;;;;12.10;7.33;;;1.70;99.90;;;;;;5072364;28;20196;-63
2021/12/09 00:38:13;;;;;;;13.93;8.37;;;1.70;99.90;;;;;;5072175;28;20287;-63
2021/12/09 00:40:40;;;;;;;11.43;6.77;;;1.60;99.90;;;;;;5071726;28;20188;-62
2021/12/09 00:43:07;;;;;;;12.07;7.47;;;1.70;99.90;;;;;;5072108;28;20212;-61
2021/12/09 00:45:35;;;;;;;10.30;6.63;;;1.70;99.90;;;;;;5072112;28;20760;-62
2021/12/09 00:48:02;;;;;;;11.27;7.67;;;1.60;99.90;;;;;;5072017;28;20208;-63
2021/12/09 00:50:29;;;;;;;15.43;8.00;;;1.60;99.90;;;;;;5071954;28;20595;-61
2021/12/09 00:52:55;;;;;;;14.13;7.77;;;1.60;99.90;;;;;;5071687;28;20209;-62
2021/12/09 00:55:22;;;;;;;14.37;8.23;;;1.60;99.90;;;;;;5072075;28;20207;-62
2021/12/09 00:57:49;;;;;;;12.93;7.60;;;1.70;99.90;;;;;;5071953;28;20234;-62
2021/12/09 01:00:18;;;;;;;14.13;7.60;;;1.70;99.90;;;;;;5071597;28;20211;-63
2021/12/09 01:02:46;;;;;;;15.23;8.03;;;1.60;99.90;;;;;;5071561;28;20204;-62
2021/12/09 01:05:14;;;;;;;11.50;7.37;;;1.60;99.90;;;;;;5071468;28;20217;-62
2021/12/09 01:07:43;;;;;;;10.73;7.43;;;1.60;99.90;;;;;;5071674;28;20208;-61
2021/12/09 01:10:13;;;;;;;12.23;7.30;;;1.60;99.90;;;;;;5071768;28;20200;-62
2021/12/09 01:12:40;;;;;;;13.20;6.97;;;1.60;99.90;;;;;;5072270;28;20555;-62
2021/12/09 01:15:09;;;;;;;11.97;7.90;;;1.60;99.90;;;;;;5071688;28;20205;-62
2021/12/09 01:17:36;;;;;;;12.70;7.43;;;1.60;99.90;;;;;;5071894;28;20232;-63
2021/12/09 01:20:06;;;;;;;14.40;7.20;;;1.60;99.90;;;;;;5071794;28;20582;-61
2021/12/09 01:22:38;;;;;;;13.60;6.90;;;1.60;99.90;;;;;;5071490;28;20200;-62
2021/12/09 01:25:06;;;;;;;11.87;7.57;;;1.60;99.90;;;;;;5084074;28;20212;-61
2021/12/09 01:27:36;;;;;;;13.40;7.67;;;1.60;99.90;;;;;;5092043;28;20227;-62
2021/12/09 01:30:09;;;;;;;15.13;8.40;;;1.60;99.90;;;;;;5086084;28;20222;-63
2021/12/09 01:32:36;;;;;;;14.63;7.70;;;1.60;99.90;;;;;;5075270;28;20598;-61
2021/12/09 01:35:05;;;;;;;12.07;7.47;;;1.60;99.90;;;;;;5071194;28;20193;-62
2021/12/09 01:37:33;;;;;;;14.03;7.73;;;1.60;99.90;;;;;;5071774;28;20201;-61
2021/12/09 01:40:01;;;;;;;13.73;7.53;;;1.60;99.90;;;;;;5071544;28;20201;-61
2021/12/09 01:42:28;;;;;;;12.07;7.37;;;1.60;99.90;;;;;;5071377;28;20254;-61
2021/12/09 01:44:54;;;;;;;13.90;7.63;;;1.60;99.90;;;;;;5071419;28;20232;-61
2021/12/09 01:47:21;;;;;;;14.33;8.30;;;1.60;99.90;;;;;;5071524;28;20208;-63
2021/12/09 01:49:49;;;;;;;13.77;8.50;;;1.60;99.90;;;;;;5071452;28;20205;-63
2021/12/09 01:52:17;;;;;;;14.07;7.63;;;1.60;99.90;;;;;;5071264;28;20236;-61
2021/12/09 01:54:44;;;;;;;14.17;7.77;;;1.60;99.90;;;;;;5071374;28;20208;-62
2021/12/09 01:57:11;;;;;;;13.53;7.90;;;1.60;99.90;;;;;;5071468;28;20204;-62
2021/12/09 01:59:38;;;;;;;13.27;8.17;;;1.60;99.90;;;;;;5071501;28;20668;-62
2021/12/09 02:02:05;;;;;;;11.43;7.17;;;1.60;99.90;;;;;;5071405;28;20208;-62
2021/12/09 02:04:32;;;;;;;14.20;8.10;;;1.60;99.90;;;;;;5071393;28;20576;-61
2021/12/09 02:06:58;;;;;;;14.37;8.30;;;1.60;99.90;;;;;;5070989;28;20213;-61
2021/12/09 02:09:27;;;;;;;12.13;7.50;;;1.60;99.90;;;;;;5071268;28;20208;-62
2021/12/09 02:11:53;;;;;;;12.30;7.40;;;1.60;99.90;;;;;;5072380;28;20216;-62
2021/12/09 02:14:20;;;;;;;14.00;7.77;;;1.60;99.90;;;;;;5075057;28;20201;-62
2021/12/09 02:16:47;;;;;;;12.27;8.10;;;1.60;99.90;;;;;;5074523;28;20204;-62
2021/12/09 02:19:14;;;;;;;15.50;8.43;;;1.60;99.90;;;;;;5074960;28;20201;-62
2021/12/09 02:21:43;;;;;;;13.07;8.00;;;1.60;99.90;;;;;;5074607;28;20213;-62
2021/12/09 02:24:15;;;;;;;11.47;7.20;;;1.60;99.90;;;;;;5074497;28;20197;-62
2021/12/09 02:26:45;;;;;;;12.93;7.43;;;1.60;99.90;;;;;;5074359;28;20189;-62
2021/12/09 02:29:14;;;;;;;11.50;7.63;;;1.60;99.90;;;;;;5074651;28;20228;-62
2021/12/09 02:31:42;;;;;;;12.27;7.80;;;1.60;99.90;;;;;;5073948;28;20216;-62
2021/12/09 02:34:11;;;;;;;14.63;7.70;;;1.70;99.90;;;;;;5074548;28;20572;-62
2021/12/09 02:36:40;;;;;;;11.60;7.77;;;1.70;99.90;;;;;;5074168;28;20205;-62
2021/12/09 02:39:11;;;;;;;14.63;8.10;;;1.70;99.90;;;;;;5074539;28;20684;-61
2021/12/09 02:41:39;;;;;;;13.80;8.57;;;1.60;99.90;;;;;;5074412;28;20205;-63
2021/12/09 02:44:10;;;;;;;15.13;10.07;;;1.60;99.90;;;;;;5074401;28;20213;-62
2021/12/09 02:46:38;;;;;;;12.37;8.90;;;1.60;99.90;;;;;;5074176;28;20228;-62
2021/12/09 02:49:07;;;;;;;10.70;8.07;;;1.60;99.90;;;;;;5074628;28;20258;-61
2021/12/09 02:51:35;;;;;;;11.83;7.80;;;1.60;99.90;;;;;;5073622;28;20240;-62
2021/12/09 02:54:02;;;;;;;12.60;7.67;;;1.60;99.90;;;;;;5074261;28;20201;-62
2021/12/09 02:56:30;;;;;;;10.77;7.30;;;1.60;99.90;;;;;;5074144;28;20205;-60
2021/12/09 02:58:57;;;;;;;12.87;7.23;;;1.60;99.90;;;;;;5074233;28;20207;-61
2021/12/09 03:01:26;;;;;;;12.30;7.00;;;1.60;99.90;;;;;;5074009;28;20212;-61
2021/12/09 03:03:59;;;;;;;10.30;6.97;;;1.60;99.90;;;;;;5073870;28;20227;-62
2021/12/09 03:06:30;;;;;;;10.00;7.10;;;1.70;99.90;;;;;;5073992;28;20209;-62
2021/12/09 03:08:58;;;;;;;14.53;7.57;;;1.60;99.90;;;;;;5074836;28;20192;-62
2021/12/09 03:11:25;;;;;;;12.50;7.50;;;1.60;99.90;;;;;;5084823;28;20205;-61
2021/12/09 03:13:53;;;;;;;11.23;8.00;;;1.60;99.90;;;;;;5073660;28;20210;-62
2021/12/09 03:16:22;;;;;;;11.07;7.07;;;1.60;99.90;;;;;;5074587;28;20205;-62
2021/12/09 03:18:52;;;;;;;12.23;6.70;;;1.60;99.90;;;;;;5073655;28;20208;-62
2021/12/09 03:21:22;;;;;;;10.80;6.20;;;1.60;99.90;;;;;;5087621;28;20204;-61
2021/12/09 03:23:50;;;;;;;10.67;6.67;;;1.60;99.90;;;;;;5093413;28;20572;-62
2021/12/09 03:26:20;;;;;;;10.77;6.60;;;1.60;99.90;;;;;;5093826;28;20591;-62
2021/12/09 03:28:47;;;;;;;10.00;6.50;;;1.60;99.90;;;;;;5093302;28;20224;-62
2021/12/09 03:31:16;;;;;;;8.30;6.10;;;1.70;99.90;;;;;;5091885;28;20652;-62
2021/12/09 03:33:42;;;;;;;8.97;6.17;;;1.60;99.90;;;;;;5074374;28;20207;-62
2021/12/09 03:36:09;;;;;;;8.53;5.57;;;1.60;99.90;;;;;;5073368;28;20204;-61
2021/12/09 03:38:37;;;;;;;9.27;5.63;;;1.60;99.90;;;;;;5073124;28;20559;-61
2021/12/09 03:41:04;;;;;;;8.57;6.10;;;1.70;99.90;;;;;;5073761;28;20197;-62
2021/12/09 03:43:32;;;;;;;8.53;5.57;;;1.70;99.90;;;;;;5073099;28;20564;-62
2021/12/09 03:45:59;;;;;;;10.00;6.53;;;1.70;99.90;;;;;;5073007;28;20319;-62
2021/12/09 03:48:30;;;;;;;7.93;5.20;;;1.60;99.90;;;;;;5072721;28;20212;-63
2021/12/09 03:50:57;;;;;;;8.13;5.13;;;1.60;99.90;;;;;;5077010;28;20223;-62
2021/12/09 03:53:24;;;;;;;8.20;5.27;;;1.60;99.90;;;;;;5093271;28;20567;-62
2021/12/09 03:55:52;;;;;;;8.60;5.47;;;1.60;99.90;;;;;;5093199;28;20196;-62
2021/12/09 03:58:19;;;;;;;9.77;5.50;;;1.60;99.90;;;;;;5093191;28;20700;-62
2021/12/09 04:00:47;;;;;;;10.60;6.00;;;1.70;99.90;;;;;;5089568;28;20203;-61
2021/12/09 04:03:16;;;;;;;10.30;6.00;;;1.70;99.90;;;;;;5072735;28;20216;-61
2021/12/09 04:05:44;;;;;;;7.80;5.40;;;1.70;99.90;;;;;;5072322;28;20274;-63
2021/12/09 04:08:11;;;;;;;7.27;5.20;;;1.70;99.90;;;;;;5072724;28;20205;-62
2021/12/09 04:10:39;;;;;;;7.83;5.73;;;1.70;99.90;;;;;;5073691;28;20232;-62
2021/12/09 04:13:06;;;;;;;8.20;5.50;;;1.70;99.90;;;;;;5092854;28;20650;-63
2021/12/09 04:15:33;;;;;;;9.83;6.10;;;1.70;99.90;;;;;;5092818;28;20575;-64
2021/12/09 04:18:00;;;;;;;8.03;5.47;;;1.70;99.90;;;;;;5092564;28;20239;-64
2021/12/09 04:20:27;;;;;;;9.43;5.83;;;1.70;99.90;;;;;;5092708;28;20227;-64
2021/12/09 04:22:56;;;;;;;9.87;6.00;;;1.70;99.90;;;;;;5092061;28;20211;-64
2021/12/09 04:25:24;;;;;;;7.70;5.23;;;1.60;99.90;;;;;;5092560;28;20681;-63
2021/12/09 04:27:55;;;;;;;11.13;6.27;;;1.70;99.90;;;;;;5092774;28;20207;-61
2021/12/09 04:30:23;;;;;;;9.40;6.00;;;1.60;99.90;;;;;;5091603;28;20200;-62
2021/12/09 04:32:51;;;;;;;10.63;6.57;;;1.60;99.90;;;;;;5092862;28;20204;-61
2021/12/09 04:35:18;;;;;;;12.87;6.80;;;1.60;99.90;;;;;;5091646;28;20219;-62
2021/12/09 04:37:45;;;;;;;11.00;6.30;;;1.60;99.90;;;;;;5090567;28;20208;-62
2021/12/09 04:40:14;;;;;;;11.97;6.90;;;1.60;99.90;;;;;;5092074;28;20200;-61
2021/12/09 04:42:42;;;;;;;9.03;6.53;;;1.60;99.90;;;;;;5085298;28;20645;-61
2021/12/09 04:45:10;;;;;;;11.53;6.73;;;1.60;99.90;;;;;;5072135;28;20689;-63
2021/12/09 04:47:37;;;;;;;13.53;7.80;;;1.60;99.90;;;;;;5071944;28;20606;-63
2021/12/09 04:50:05;;;;;;;13.87;8.37;;;1.60;99.90;;;;;;5071666;28;20204;-62
2021/12/09 04:52:32;;;;;;;15.03;8.17;;;1.60;99.90;;;;;;5075876;28;20189;-62
2021/12/09 04:55:00;;;;;;;13.80;8.47;;;1.60;99.90;;;;;;5072141;28;20296;-62
2021/12/09 04:57:28;;;;;;;14.57;8.40;;;1.60;99.90;;;;;;5078479;28;20667;-61
2021/12/09 04:59:55;;;;;;;11.93;8.00;;;1.60;99.90;;;;;;5092140;28;20561;-62
2021/12/09 05:02:28;;;;;;;13.83;8.30;;;1.60;99.90;;;;;;5091975;28;20207;-64
2021/12/09 05:04:55;;;;;;;12.60;7.90;;;1.60;99.90;;;;;;5091862;28;20220;-65
2021/12/09 05:07:23;;;;;;;14.23;7.90;;;1.60;99.90;;;;;;5086233;28;20201;-62
2021/12/09 05:09:51;;;;;;;15.60;9.37;;;1.60;99.90;;;;;;5076431;28;20203;-62
2021/12/09 05:12:20;;;;;;;15.43;8.43;;;1.50;99.90;;;;;;5091894;28;20257;-65
2021/12/09 05:14:49;;;;;;;18.30;9.97;;;1.50;99.90;;;;;;5091660;28;20210;-62
2021/12/09 05:17:16;;;;;;;16.47;9.63;;;1.50;99.90;;;;;;5087734;28;20676;-61
2021/12/09 05:19:44;;;;;;;14.77;8.90;;;1.60;99.90;;;;;;5071836;28;20215;-61
2021/12/09 05:22:11;;;;;;;18.17;9.63;;;1.60;99.90;;;;;;5071719;28;20212;-62
2021/12/09 05:24:38;;;;;;;15.33;9.60;;;1.60;99.90;;;;;;5071746;28;20200;-61
2021/12/09 05:27:06;;;;;;;17.23;9.90;;;1.60;99.90;;;;;;5072753;28;20702;-62
2021/12/09 05:29:38;;;;;;;18.20;9.50;;;1.60;99.90;;;;;;5091562;28;20306;-62
2021/12/09 05:32:08;;;;;;;18.77;10.07;;;1.60;99.90;;;;;;5091645;28;20313;-63
2021/12/09 05:34:37;;;;;;;16.00;9.70;;;1.50;99.90;;;;;;5091437;28;20208;-61
2021/12/09 05:37:05;;;;;;;17.43;9.80;;;1.50;99.90;;;;;;5089334;28;20257;-61
2021/12/09 05:39:32;;;;;;;21.87;10.80;;;1.60;99.90;;;;;;5071304;28;20212;-63
2021/12/09 05:41:59;;;;;;;17.77;10.37;;;1.60;99.90;;;;;;5071776;28;20208;-63
2021/12/09 05:44:26;;;;;;;20.70;11.20;;;1.60;99.90;;;;;;5082952;28;20206;-61
2021/12/09 05:46:53;;;;;;;20.97;10.73;;;1.60;99.90;;;;;;5082550;28;20238;-65
2021/12/09 05:49:22;;;;;;;22.63;11.60;;;1.60;99.90;;;;;;5075445;28;20581;-62
2021/12/09 05:51:48;;;;;;;22.93;11.13;;;1.60;99.90;;;;;;5076621;28;20225;-62
2021/12/09 05:54:15;;;;;;;21.30;10.80;;;1.60;99.90;;;;;;5082460;28;20204;-63
2021/12/09 05:56:43;;;;;;;15.73;9.10;;;1.60;99.90;;;;;;5095692;28;20656;-63
2021/12/09 05:59:10;;;;;;;22.83;11.53;;;1.70;99.90;;;;;;5095440;28;20211;-63
2021/12/09 06:01:38;;;;;;;22.10;10.97;;;1.70;99.90;;;;;;5095615;28;20206;-62
2021/12/09 06:04:06;;;;;;;20.97;10.90;;;1.70;99.90;;;;;;5089327;28;20705;-63
2021/12/09 06:06:35;;;;;;;23.40;11.50;;;1.70;99.90;;;;;;5074915;28;20227;-62
2021/12/09 06:09:04;;;;;;;23.83;11.63;;;1.70;99.90;;;;;;5075044;28;20575;-61
2021/12/09 06:11:31;;;;;;;22.50;11.70;;;1.70;99.90;;;;;;5075253;28;20565;-62
2021/12/09 06:13:58;;;;;;;22.57;10.90;;;1.70;99.90;;;;;;5075728;28;20204;-63
2021/12/09 06:16:25;;;;;;;28.87;12.23;;;1.70;99.90;;;;;;5074474;28;20238;-61
2021/12/09 06:18:52;;;;;;;23.37;12.40;;;1.80;99.90;;;;;;5074933;28;20626;-62
2021/12/09 06:21:19;;;;;;;19.60;11.10;;;1.80;99.90;;;;;;5074699;28;20288;-62
2021/12/09 06:23:47;;;;;;;26.30;13.07;;;1.80;99.90;;;;;;5077340;28;20204;-62
2021/12/09 06:26:14;;;;;;;20.93;11.67;;;1.80;99.90;;;;;;5094864;28;20231;-62
2021/12/09 06:28:41;;;;;;;24.20;11.90;;;1.80;99.90;;;;;;5094528;28;20228;-62
2021/12/09 06:31:08;;;;;;;31.30;13.47;;;1.80;99.90;;;;;;5094791;28;20544;-62
2021/12/09 06:33:35;;;;;;;32.23;13.67;;;1.80;99.90;;;;;;5094469;28;20200;-60
2021/12/09 06:36:02;;;;;;;22.17;11.60;;;1.80;99.90;;;;;;5074277;28;20549;-61
2021/12/09 06:38:29;;;;;;;26.03;12.70;;;1.80;99.90;;;;;;5074536;28;20224;-62
2021/12/09 06:40:57;;;;;;;30.97;14.10;;;1.90;99.90;;;;;;5093718;28;20200;-62
2021/12/09 06:43:24;;;;;;;31.70;14.17;;;1.90;99.90;;;;;;5082244;28;20197;-61
2021/12/09 06:45:53;;;;;;;35.23;14.30;;;1.90;99.90;;;;;;5084094;28;20230;-61
2021/12/09 06:48:20;;;;;;;27.17;13.90;;;1.90;99.90;;;;;;5094481;28;20649;-62
2021/12/09 06:50:47;;;;;;;31.57;15.63;;;1.90;99.90;;;;;;5094155;28;20240;-61
2021/12/09 06:53:14;;;;;;;21.57;12.47;;;1.90;99.90;;;;;;5094271;28;20204;-62
2021/12/09 06:55:42;;;;;;;30.07;13.70;;;1.90;99.90;;;;;;5085358;28;20235;-61
2021/12/09 06:58:10;;;;;;;33.87;14.00;;;1.90;99.90;;;;;;5073235;28;20201;-62
2021/12/09 07:00:41;;;;;;;32.07;14.27;;;1.90;99.90;;;;;;5073838;28;20201;-63
2021/12/09 07:03:09;;;;;;;24.97;13.10;;;2.00;99.90;;;;;;5073644;28;20221;-62
2021/12/09 07:05:37;;;;;;;31.65;13.90;;;2.00;99.90;;;;;;5074673;28;20212;-63
2021/12/09 07:08:04;;;;;;;31.87;14.30;;;2.00;99.90;;;;;;5073843;28;20424;-62
2021/12/09 07:10:32;;;;;;;32.63;13.73;;;2.00;99.90;;;;;;5073650;28;20262;-62
2021/12/09 07:12:58;;;;;;;28.60;14.27;;;2.00;99.90;;;;;;5072846;28;20197;-63
2021/12/09 07:15:27;;;;;;;34.97;15.30;;;2.00;99.90;;;;;;5073825;28;20201;-63
2021/12/09 07:17:54;;;;;;;36.47;15.60;;;2.00;99.90;;;;;;5073377;28;20208;-62
2021/12/09 07:20:23;;;;;;;47.57;17.73;;;2.00;99.90;;;;;;5073248;28;20212;-63
2021/12/09 07:22:51;;;;;;;34.03;14.83;;;2.00;99.90;;;;;;5073811;28;20223;-63
2021/12/09 07:25:19;;;;;;;45.63;16.10;;;2.00;99.90;;;;;;5073557;28;20556;-61
2021/12/09 07:27:46;;;;;;;56.13;22.67;;;2.00;99.90;;;;;;5073140;28;20221;-62
2021/12/09 07:30:15;;;;;;;40.33;18.53;;;2.00;99.90;;;;;;5073176;28;20207;-63
2021/12/09 07:32:45;;;;;;;41.67;16.87;;;2.00;99.90;;;;;;5073402;28;20205;-63
2021/12/09 07:35:14;;;;;;;45.47;18.83;;;2.00;99.90;;;;;;5073209;28;20189;-62
2021/12/09 07:37:42;;;;;;;41.23;17.50;;;2.00;99.90;;;;;;5073132;28;20212;-61
2021/12/09 07:40:13;;;;;;;38.77;15.93;;;2.00;99.90;;;;;;5073366;28;20204;-62
2021/12/09 07:42:40;;;;;;;32.63;15.90;;;1.90;99.90;;;;;;5073106;28;20200;-62
2021/12/09 07:45:08;;;;;;;38.03;18.60;;;1.90;99.90;;;;;;5073133;28;20217;-62
2021/12/09 07:47:35;;;;;;;48.73;19.63;;;2.00;99.90;;;;;;5073045;28;20223;-63
2021/12/09 07:50:05;;;;;;;34.10;17.13;;;2.00;99.90;;;;;;5077268;28;20203;-62
2021/12/09 07:52:31;;;;;;;51.60;19.60;;;1.90;99.90;;;;;;5093006;28;20199;-62
2021/12/09 07:54:58;;;;;;;36.90;16.73;;;2.00;99.90;;;;;;5091387;28;20205;-65
2021/12/09 07:57:25;;;;;;;38.00;16.97;;;2.00;99.90;;;;;;5093225;28;20207;-62
2021/12/09 07:59:52;;;;;;;38.43;17.97;;;2.00;99.90;;;;;;5093078;28;20600;-64
2021/12/09 08:02:19;;;;;;;32.77;16.20;;;2.00;99.90;;;;;;5093193;28;20294;-62
2021/12/09 08:04:45;;;;;;;38.70;17.33;;;2.00;99.90;;;;;;5089322;28;20203;-62
2021/12/09 08:07:14;;;;;;;36.73;16.90;;;2.00;99.90;;;;;;5072260;28;20230;-62
2021/12/09 08:09:40;;;;;;;39.50;16.87;;;2.00;99.90;;;;;;5071861;28;20204;-63
2021/12/09 08:12:08;;;;;;;34.53;17.27;;;2.00;99.90;;;;;;5072539;28;20665;-62
2021/12/09 08:14:35;;;;;;;42.13;16.97;;;2.00;99.90;;;;;;5073841;28;20212;-62
2021/12/09 08:17:12;;;;;;;50.80;18.80;;;2.00;99.90;;;;;;5092866;28;20289;-62
2021/12/09 08:19:39;;;;;;;42.20;18.97;;;1.90;99.90;;;;;;5092793;28;20192;-62
2021/12/09 08:22:06;;;;;;;49.73;18.57;;;2.00;99.90;;;;;;5092742;28;20212;-61
2021/12/09 08:24:34;;;;;;;43.43;19.50;;;2.00;99.90;;;;;;5078496;28;20199;-61
2021/12/09 08:27:01;;;;;;;46.93;20.37;;;1.90;99.90;;;;;;5072356;28;20224;-62
2021/12/09 08:29:27;;;;;;;49.50;18.77;;;1.90;99.90;;;;;;5071890;28;20224;-62
2021/12/09 08:31:54;;;;;;;44.80;17.80;;;1.90;99.90;;;;;;5072066;28;20208;-63
2021/12/09 08:34:21;;;;;;;45.47;20.47;;;1.90;99.90;;;;;;5072413;28;20204;-62
2021/12/09 08:36:48;;;;;;;56.40;21.57;;;1.90;99.90;;;;;;5072860;28;20188;-62
2021/12/09 08:39:15;;;;;;;47.67;19.53;;;1.90;99.90;;;;;;5073499;28;20224;-61
2021/12/09 08:41:44;;;;;;;44.50;19.63;;;1.90;99.90;;;;;;5072031;28;20232;-63
2021/12/09 08:44:11;;;;;;;44.73;21.10;;;1.90;99.90;;;;;;5072320;28;20215;-62
2021/12/09 08:46:38;;;;;;;52.57;21.63;;;1.80;99.90;;;;;;5072622;28;20213;-62
2021/12/09 08:49:05;;;;;;;42.10;19.03;;;1.80;99.90;;;;;;5072029;28;20234;-61
2021/12/09 08:51:32;;;;;;;39.40;17.90;;;1.80;99.90;;;;;;5071890;28;20228;-64
2021/12/09 08:53:59;;;;;;;44.63;18.43;;;1.80;99.90;;;;;;5075993;28;20682;-62
2021/12/09 08:56:26;;;;;;;38.03;18.03;;;1.80;99.90;;;;;;5086736;28;20207;-62
2021/12/09 08:58:55;;;;;;;40.57;18.90;;;1.90;99.90;;;;;;5087987;28;20518;-61
2021/12/09 09:01:21;;;;;;;48.63;20.23;;;1.80;99.90;;;;;;5079831;28;20200;-62
2021/12/09 09:03:48;;;;;;;51.07;20.67;;;1.80;99.90;;;;;;5092233;28;20203;-62
2021/12/09 09:06:15;;;;;;;41.37;18.13;;;1.80;99.90;;;;;;5092020;28;20206;-62
2021/12/09 09:08:42;;;;;;;45.87;19.87;;;1.80;99.90;;;;;;5083582;28;20555;-62
2021/12/09 09:11:09;;;;;;;54.17;21.50;;;1.80;99.90;;;;;;5071614;28;20197;-62
2021/12/09 09:13:36;;;;;;;55.23;22.00;;;1.80;99.90;;;;;;5071671;28;20236;-62
2021/12/09 09:16:05;;;;;;;49.53;20.83;;;1.80;99.90;;;;;;5071519;28;20296;-63
2021/12/09 09:18:32;;;;;;;54.87;23.03;;;1.80;99.90;;;;;;5071991;28;20205;-62
2021/12/09 09:20:59;;;;;;;47.23;22.33;;;1.90;99.90;;;;;;5073493;28;20231;-63
2021/12/09 09:23:26;;;;;;;61.47;23.43;;;1.90;99.90;;;;;;5074509;28;20204;-62
2021/12/09 09:25:53;;;;;;;44.17;20.17;;;1.80;99.90;;;;;;5075936;28;20203;-63
2021/12/09 09:28:20;;;;;;;47.23;22.10;;;1.80;99.90;;;;;;5075760;28;20737;-63
2021/12/09 09:30:53;;;;;;;45.00;21.37;;;1.90;99.90;;;;;;5074989;28;20209;-63
2021/12/09 09:33:23;;;;;;;45.80;21.47;;;1.80;99.90;;;;;;5075860;28;20251;-63
2021/12/09 09:35:51;;;;;;;38.60;18.87;;;1.90;99.90;;;;;;5075221;28;20568;-62
2021/12/09 09:38:19;;;;;;;42.73;19.77;;;1.90;99.90;;;;;;5075774;28;20201;-64
2021/12/09 09:40:50;;;;;;;48.07;23.50;;;1.90;99.90;;;;;;5075665;28;20205;-64
2021/12/09 09:43:42;;;;;;;44.87;20.57;;;2.00;99.90;;;;;;5075693;28;20189;-64
2021/12/09 09:46:10;;;;;;;43.60;19.13;;;2.00;99.90;;;;;;5074846;28;20188;-62
2021/12/09 09:48:39;;;;;;;41.93;19.47;;;2.00;99.90;;;;;;5074943;28;20233;-65
2021/12/09 09:51:07;;;;;;;36.47;18.00;;;1.90;99.90;;;;;;5075238;28;20245;-63
2021/12/09 09:53:34;;;;;;;39.20;18.27;;;2.00;99.90;;;;;;5074958;28;20649;-64
2021/12/09 09:56:04;;;;;;;53.40;19.50;;;2.00;99.90;;;;;;5075471;28;20201;-62
2021/12/09 09:58:31;;;;;;;45.07;20.97;;;1.90;99.90;;;;;;5074838;28;20221;-63
2021/12/09 10:00:58;;;;;;;43.47;18.67;;;1.90;99.90;;;;;;5074389;28;20196;-63
2021/12/09 10:03:29;;;;;;;36.87;17.53;;;2.00;99.90;;;;;;5075073;28;20214;-63
2021/12/09 10:05:59;;;;;;;40.87;18.40;;;1.90;99.90;;;;;;5074828;28;20189;-63
2021/12/09 10:08:26;;;;;;;41.03;18.40;;;1.90;99.90;;;;;;5074529;28;20223;-61
2021/12/09 10:10:53;;;;;;;37.47;18.53;;;2.00;99.90;;;;;;5074518;28;21005;-63
2021/12/09 10:13:21;;;;;;;41.07;18.67;;;1.90;99.90;;;;;;5075077;28;20209;-63
2021/12/09 10:15:49;;;;;;;41.37;19.53;;;2.00;99.90;;;;;;5074356;28;20205;-63
2021/12/09 10:18:38;;;;;;;42.27;19.23;;;2.00;99.90;;;;;;5074291;28;20668;-62
2021/12/09 10:21:07;;;;;;;39.30;17.27;;;1.90;99.90;;;;;;5075019;28;20193;-63
2021/12/09 10:23:37;;;;;;;37.10;17.63;;;2.00;99.90;;;;;;5072047;28;20216;-62
2021/12/09 10:26:14;;;;;;;35.63;17.00;;;2.00;99.90;;;;;;5078645;28;20200;-62
2021/12/09 10:28:46;;;;;;;36.33;16.90;;;2.00;99.90;;;;;;5077063;28;20295;-64
2021/12/09 10:31:15;;;;;;;35.73;17.33;;;2.00;99.90;;;;;;5074537;28;20314;-63
2021/12/09 10:34:00;;;;;;;42.00;18.43;;;2.00;99.90;;;;;;5072921;28;20216;-62
2021/12/09 10:37:00;;;;;;;38.50;16.50;;;2.00;99.90;;;;;;5070199;28;20685;-62
2021/12/09 10:39:39;;;;;;;37.23;18.43;;;1.90;99.90;;;;;;5073652;28;20560;-62
2021/12/09 10:42:09;;;;;;;31.40;16.23;;;1.90;99.90;;;;;;5073820;28;20207;-62
2021/12/09 10:44:44;;;;;;;31.70;15.20;;;1.90;99.90;;;;;;5073601;28;20207;-61
2021/12/09 10:47:15;;;;;;;34.53;15.77;;;1.90;99.90;;;;;;5073181;28;20587;-64
2021/12/09 10:49:51;;;;;;;35.90;16.70;;;1.90;99.90;;;;;;5074160;28;20193;-62
2021/12/09 10:52:36;;;;;;;29.07;14.83;;;2.00;99.90;;;;;;5073975;28;20240;-62
2021/12/09 10:55:09;;;;;;;39.87;18.30;;;1.90;99.90;;;;;;5074202;28;20193;-65
2021/12/09 10:57:36;;;;;;;31.53;16.97;;;1.90;99.90;;;;;;5073741;28;20193;-62
2021/12/09 11:00:18;;;;;;;39.30;18.50;;;1.90;99.90;;;;;;5074022;28;20213;-63
2021/12/09 11:03:07;;;;;;;45.97;21.30;;;2.00;99.90;;;;;;5074145;28;20193;-61
2021/12/09 11:05:36;;;;;;;41.23;22.00;;;1.90;99.90;;;;;;5073815;28;20200;-63
2021/12/09 11:08:32;;;;;;;39.20;19.23;;;1.90;99.90;;;;;;5073543;28;20231;-62
2021/12/09 11:11:06;;;;;;;33.03;17.40;;;1.90;99.90;;;;;;5073687;28;20185;-62
2021/12/09 11:13:41;;;;;;;34.07;16.87;;;1.90;99.90;;;;;;5073764;28;20189;-63
2021/12/09 11:16:08;;;;;;;36.13;16.97;;;1.90;99.90;;;;;;5073499;28;20192;-63
2021/12/09 11:18:40;;;;;;;38.47;17.37;;;1.90;99.90;;;;;;5073592;28;20629;-62
2021/12/09 11:21:15;;;;;;;39.60;18.23;;;1.90;99.90;;;;;;5073787;28;20241;-62
2021/12/09 11:23:48;;;;;;;37.03;18.40;;;1.90;99.90;;;;;;5073512;28;20697;-62
2021/12/09 11:26:23;;;;;;;38.47;18.77;;;1.90;99.90;;;;;;5073716;28;20184;-62
2021/12/09 11:28:55;;;;;;;39.53;18.57;;;1.80;99.90;;;;;;5073514;28;20258;-63
2021/12/09 11:31:25;;;;;;;38.33;17.23;;;1.80;99.90;;;;;;5073142;28;20239;-62
2021/12/09 11:33:58;;;;;;;36.67;17.27;;;1.80;99.90;;;;;;5073190;28;20204;-63
2021/12/09 11:36:47;;;;;;;35.67;16.73;;;1.80;99.90;;;;;;5073064;28;20638;-63
2021/12/09 11:39:22;;;;;;;32.37;16.73;;;1.80;99.90;;;;;;5073285;28;20733;-63
2021/12/09 11:41:49;;;;;;;37.37;18.10;;;1.80;99.90;;;;;;5073129;28;20621;-62
2021/12/09 11:44:17;;;;;;;37.87;17.97;;;1.80;99.90;;;;;;5072861;28;20541;-63
2021/12/09 11:46:47;;;;;;;35.77;17.17;;;1.80;99.90;;;;;;5073023;28;20326;-62
2021/12/09 11:49:15;;;;;;;32.80;16.33;;;1.80;99.90;;;;;;5073213;28;20259;-64
2021/12/09 11:51:42;;;;;;;39.40;18.37;;;1.80;99.90;;;;;;5073317;28;20236;-62
2021/12/09 11:54:10;;;;;;;39.73;19.07;;;1.80;99.90;;;;;;5073603;28;20226;-64
2021/12/09 11:57:09;;;;;;;36.77;18.67;;;1.80;99.90;;;;;;5072853;28;20662;-62
2021/12/09 12:11:38;;;;;;;46.93;19.43;;;1.90;99.90;;;;;;5072574;28;20242;-63
2021/12/09 12:14:37;;;;;;;43.10;19.93;;;1.80;99.90;;;;;;5072582;28;20188;-61
2021/12/09 12:17:31;;;;;;;52.50;20.77;;;1.80;99.90;;;;;;5072676;28;20602;-61
2021/12/09 12:20:27;;;;;;;40.43;18.83;;;1.80;99.90;;;;;;5072694;28;20770;-62
2021/12/09 12:26:36;;;;;;;43.40;20.10;;;1.70;99.90;;;;;;5056415;28;20189;-63
2021/12/09 12:32:12;;;;;;;38.40;18.90;;;1.80;99.90;;;;;;5069191;28;20277;-63
2021/12/09 12:37:58;;;;;;;45.20;19.83;;;1.90;99.90;;;;;;5072432;28;20177;-63
2021/12/09 12:40:31;;;;;;;44.70;20.37;;;1.90;99.90;;;;;;5072007;28;20192;-63
2021/12/09 12:43:02;;;;;;;46.53;20.50;;;1.90;99.90;;;;;;5072247;28;20197;-62
2021/12/09 12:45:52;;;;;;;49.27;19.93;;;1.90;99.90;;;;;;5072057;28;20635;-61
2021/12/09 12:51:33;;;;;;;45.40;20.57;;;2.00;99.90;;;;;;5071583;28;20233;-62
2021/12/09 12:54:04;;;;;;;37.67;17.97;;;2.00;99.90;;;;;;5072068;28;20701;-63
2021/12/09 12:56:33;;;;;;;37.30;19.23;;;2.00;99.90;;;;;;5071429;28;20193;-62
2021/12/09 12:59:19;;;;;;;38.13;17.63;;;2.00;99.90;;;;;;5071978;28;20567;-62
2021/12/09 13:02:11;;;;;;;38.23;18.23;;;2.00;99.90;;;;;;5072011;28;20196;-63
2021/12/09 13:04:48;;;;;;;38.63;17.20;;;1.90;99.90;;;;;;5065618;28;20216;-62
2021/12/09 13:07:23;;;;;;;46.87;20.30;;;1.90;99.90;;;;;;5072146;28;20192;-62
2021/12/09 13:10:01;;;;;;;40.67;18.30;;;1.90;99.90;;;;;;5071752;28;20188;-63
2021/12/09 13:12:43;;;;;;;34.83;16.27;;;1.90;99.90;;;;;;5071702;28;20189;-64
2021/12/09 13:15:21;;;;;;;32.00;16.03;;;1.80;99.90;;;;;;5071679;28;20193;-62
2021/12/09 13:17:59;;;;;;;29.73;15.30;;;1.80;99.90;;;;;;5069643;28;20193;-63
2021/12/09 13:20:28;;;;;;;37.03;17.07;;;1.80;99.90;;;;;;5066658;28;20192;-63